sensor_id;sensor_type;location;lat;lon;timestamp;P1;durP1;ratioP1;P2;durP2;ratioP2
56557;SDS011;43358;50.356;12.456;2023-07-20T01:42:26;4.4;;;8.6;;
56557;SDS011;43358;50.356;12.456;2023-07-20T01:42:58;1.5;;;7.3;;
56557;SDS011;43358;50.356;12.456;2023-07-20T01:47:58;1.4;;;2.3;;
56557;SDS011;43358;50.356;12.456;2023-07-20T01:52:58;1.5;;;3.4;;
56557;SDS011;43358;50.356;12.456;2023-07-20T01:57:58;1.4;;;2.3;;
56557;SDS011;43358;50.356;12.456;2023-07-20T02:02:58;1.6;;;2.2;;
56557;SDS011;43358;50.356;12.456;2023-07-20T02:07:58;1.6;;;3.7;;
56557;SDS011;43358;50.356;12.456;2023-07-20T02:12:58;1.5;;;2.5;;
56557;SDS011;43358;50.356;12.456;2023-07-20T02:17:58;1.5;;;2.8;;
56557;SDS011;43358;50.356;12.456;2023-07-20T02:22:58;1.5;;;3;;
56557;SDS011;43358;50.356;12.456;2023-07-20T02:28:13;1.6;;;3.3;;
56557;SDS011;43358;50.356;12.456;2023-07-20T02:32:58;1.5;;;3.4;;
56557;SDS011;43358;50.356;12.456;2023-07-20T02:37:58;1.4;;;2.3;;
56557;SDS011;43358;50.356;12.456;2023-07-20T02:42:58;1.5;;;1.9;;
56557;SDS011;43358;50.356;12.456;2023-07-20T02:47:58;1.3;;;2.6;;
56557;SDS011;43358;50.356;12.456;2023-07-20T02:52:58;1.6;;;2;;
56557;SDS011;43358;50.356;12.456;2023-07-20T02:57:58;1.5;;;2.5;;
56557;SDS011;43358;50.356;12.456;2023-07-20T03:02:58;1.5;;;2.3;;
56557;SDS011;43358;50.356;12.456;2023-07-20T03:07:58;1.5;;;1.9;;
56557;SDS011;43358;50.356;12.456;2023-07-20T03:12:58;1.4;;;2.3;;
56557;SDS011;43358;50.356;12.456;2023-07-20T03:17:59;1.4;;;3.5;;
56557;SDS011;43358;50.356;12.456;2023-07-20T03:22:58;1.7;;;2.3;;
56557;SDS011;43358;50.356;12.456;2023-07-20T03:27:58;1.6;;;3.2;;
56557;SDS011;43358;50.356;12.456;2023-07-20T03:32:58;1.5;;;2.4;;
56557;SDS011;43358;50.356;12.456;2023-07-20T03:37:58;1.3;;;2.2;;
56557;SDS011;43358;50.356;12.456;2023-07-20T03:42:58;1.6;;;2.6;;
56557;SDS011;43358;50.356;12.456;2023-07-20T03:47:59;1.6;;;2.4;;
56557;SDS011;43358;50.356;12.456;2023-07-20T03:52:58;1.6;;;2.5;;
56557;SDS011;43358;50.356;12.456;2023-07-20T03:58:19;1.6;;;2.3;;
56557;SDS011;43358;50.356;12.456;2023-07-20T04:02:58;1.6;;;2.5;;
56557;SDS011;43358;50.356;12.456;2023-07-20T04:08:15;1.6;;;2.6;;
56557;SDS011;43358;50.356;12.456;2023-07-20T04:12:59;1.5;;;2.1;;
56557;SDS011;43358;50.356;12.456;2023-07-20T04:22:58;1.7;;;2.5;;
56557;SDS011;43358;50.356;12.456;2023-07-20T04:27:59;1.6;;;2.7;;
56557;SDS011;43358;50.356;12.456;2023-07-20T04:32:59;1.4;;;2.3;;
56557;SDS011;43358;50.356;12.456;2023-07-20T04:37:59;1.7;;;2;;
56557;SDS011;43358;50.356;12.456;2023-07-20T04:42:59;1.5;;;3;;
56557;SDS011;43358;50.356;12.456;2023-07-20T04:47:59;1.7;;;2.1;;
56557;SDS011;43358;50.356;12.456;2023-07-20T04:53:13;1.9;;;2.4;;
56557;SDS011;43358;50.356;12.456;2023-07-20T04:57:59;1.7;;;2.6;;
56557;SDS011;43358;50.356;12.456;2023-07-20T05:02:59;1.9;;;2.5;;
56557;SDS011;43358;50.356;12.456;2023-07-20T05:07:59;1.9;;;3.7;;
56557;SDS011;43358;50.356;12.456;2023-07-20T05:12:59;2;;;3.7;;
56557;SDS011;43358;50.356;12.456;2023-07-20T05:17:59;2.3;;;3.6;;
56557;SDS011;43358;50.356;12.456;2023-07-20T05:22:59;2.5;;;3.4;;
56557;SDS011;43358;50.356;12.456;2023-07-20T05:45:58;2.2;;;4.4;;
56557;SDS011;43358;50.356;12.456;2023-07-20T05:47:59;2.2;;;3;;
56557;SDS011;43358;50.356;12.456;2023-07-20T05:52:59;2.3;;;3.9;;
56557;SDS011;43358;50.356;12.456;2023-07-20T05:57:59;2.1;;;3.8;;
56557;SDS011;43358;50.356;12.456;2023-07-20T06:02:59;2;;;6;;
56557;SDS011;43358;50.356;12.456;2023-07-20T06:07:59;1.7;;;3.9;;
56557;SDS011;43358;50.356;12.456;2023-07-20T06:12:59;1.8;;;2.3;;
56557;SDS011;43358;50.356;12.456;2023-07-20T06:17:59;1.8;;;4.9;;
56557;SDS011;43358;50.356;12.456;2023-07-20T06:22:59;2.4;;;3.2;;
56557;SDS011;43358;50.356;12.456;2023-07-20T06:27:59;2.5;;;5.9;;
56557;SDS011;43358;50.356;12.456;2023-07-20T06:32:59;2.4;;;4.3;;
56557;SDS011;43358;50.356;12.456;2023-07-20T06:37:59;2.2;;;3.9;;
56557;SDS011;43358;50.356;12.456;2023-07-20T06:42:59;2.1;;;4.2;;
56557;SDS011;43358;50.356;12.456;2023-07-20T06:52:59;2.1;;;4.3;;
56557;SDS011;43358;50.356;12.456;2023-07-20T13:22:59;2.1;;;4.4;;
56557;SDS011;43358;50.356;12.456;2023-07-20T13:27:59;1.2;;;7;;
56557;SDS011;43358;50.356;12.456;2023-07-20T13:32:59;1.4;;;1.6;;
56557;SDS011;43358;50.356;12.456;2023-07-20T13:37:59;1.5;;;2;;
56557;SDS011;43358;50.356;12.456;2023-07-20T13:42:59;1.4;;;3.3;;
56557;SDS011;43358;50.356;12.456;2023-07-20T13:47:59;1.8;;;2.3;;
56557;SDS011;43358;50.356;12.456;2023-07-20T13:52:59;1.8;;;11;;
56557;SDS011;43358;50.356;12.456;2023-07-20T13:58:27;1.7;;;2.5;;
56557;SDS011;43358;50.356;12.456;2023-07-20T14:02:59;1.8;;;2.1;;
56557;SDS011;43358;50.356;12.456;2023-07-20T14:07:59;2.1;;;2.7;;
56557;SDS011;43358;50.356;12.456;2023-07-20T14:12:59;2.3;;;3;;
56557;SDS011;43358;50.356;12.456;2023-07-20T14:17:59;2;;;4.6;;
56557;SDS011;43358;50.356;12.456;2023-07-20T14:22:59;2.1;;;3;;
56557;SDS011;43358;50.356;12.456;2023-07-20T14:27:59;1.7;;;2.7;;
56557;SDS011;43358;50.356;12.456;2023-07-20T14:32:59;1.4;;;2.6;;
56557;SDS011;43358;50.356;12.456;2023-07-20T14:47:59;1.1;;;1.6;;
56557;SDS011;43358;50.356;12.456;2023-07-20T15:07:59;1.2;;;1.9;;
56557;SDS011;43358;50.356;12.456;2023-07-20T15:12:59;1.2;;;1.5;;
56557;SDS011;43358;50.356;12.456;2023-07-20T15:18:05;1.2;;;3;;
56557;SDS011;43358;50.356;12.456;2023-07-20T15:22:59;1.4;;;2.2;;
56557;SDS011;43358;50.356;12.456;2023-07-20T15:27:59;1.3;;;2.3;;
56557;SDS011;43358;50.356;12.456;2023-07-20T15:32:59;1.3;;;2.8;;
56557;SDS011;43358;50.356;12.456;2023-07-20T15:54:48;1.5;;;2.4;;
56557;SDS011;43358;50.356;12.456;2023-07-20T15:59:47;1.4;;;4.3;;
56557;SDS011;43358;50.356;12.456;2023-07-20T16:10:20;1;;;3.5;;
56557;SDS011;43358;50.356;12.456;2023-07-20T16:14:48;1;;;1.5;;
56557;SDS011;43358;50.356;12.456;2023-07-20T16:19:47;1.2;;;1.4;;
56557;SDS011;43358;50.356;12.456;2023-07-20T16:24:47;1.2;;;1.5;;
56557;SDS011;43358;50.356;12.456;2023-07-20T20:38:55;1;;;1.9;;
56557;SDS011;43358;50.356;12.456;2023-07-20T20:43:55;1;;;1.1;;
56557;SDS011;43358;50.356;12.456;2023-07-20T20:48:55;1.1;;;2;;
56557;SDS011;43358;50.356;12.456;2023-07-20T20:53:55;1.1;;;2.8;;
56557;SDS011;43358;50.356;12.456;2023-07-20T20:59:09;1;;;1.5;;
56557;SDS011;43358;50.356;12.456;2023-07-20T21:04:40;1.1;;;1.6;;
56557;SDS011;43358;50.356;12.456;2023-07-20T21:09:09;1;;;1.7;;
56557;SDS011;43358;50.356;12.456;2023-07-20T21:14:09;1.1;;;2.4;;
56557;SDS011;43358;50.356;12.456;2023-07-20T21:24:06;1.15;;;2.3;;
56557;SDS011;43358;50.356;12.456;2023-07-20T21:38:55;1.4;;;1.6;;
56557;SDS011;43358;50.356;12.456;2023-07-20T21:43:55;1.25;;;2.1;;
56557;SDS011;43358;50.356;12.456;2023-07-20T21:48:55;1.1;;;3.9;;
56557;SDS011;43358;50.356;12.456;2023-07-20T21:53:55;1.2;;;1.3;;
56557;SDS011;43358;50.356;12.456;2023-07-20T21:58:55;1.4;;;1.6;;
56557;SDS011;43358;50.356;12.456;2023-07-20T22:03:55;1.2;;;2.1;;
56557;SDS011;43358;50.356;12.456;2023-07-20T22:08:55;1.5;;;1.6;;
56557;SDS011;43358;50.356;12.456;2023-07-20T22:13:55;1.8;;;2.2;;
56557;SDS011;43358;50.356;12.456;2023-07-20T22:18:55;1.2;;;4.1;;
56557;SDS011;43358;50.356;12.456;2023-07-20T22:23:55;1.3;;;1.8;;
56557;SDS011;43358;50.356;12.456;2023-07-20T22:28:55;1.2;;;1.8;;
56557;SDS011;43358;50.356;12.456;2023-07-20T22:38:55;1.1;;;2.3;;
56557;SDS011;43358;50.356;12.456;2023-07-20T22:43:55;1.2;;;1.7;;
56557;SDS011;43358;50.356;12.456;2023-07-20T22:48:55;1.4;;;1.7;;
56557;SDS011;43358;50.356;12.456;2023-07-20T22:53:55;1;;;2.8;;
56557;SDS011;43358;50.356;12.456;2023-07-20T22:58:55;1.3;;;1.3;;
56557;SDS011;43358;50.356;12.456;2023-07-20T23:03:55;1.2;;;2;;
56557;SDS011;43358;50.356;12.456;2023-07-20T23:08:55;1.1;;;1.6;;
56557;SDS011;43358;50.356;12.456;2023-07-20T23:13:55;1.2;;;1.6;;
56557;SDS011;43358;50.356;12.456;2023-07-20T23:18:55;1.1;;;1.5;;
56557;SDS011;43358;50.356;12.456;2023-07-20T23:28:55;1.3;;;1.9;;
56557;SDS011;43358;50.356;12.456;2023-07-20T23:34:09;1.2;;;1.5;;
56557;SDS011;43358;50.356;12.456;2023-07-20T23:38:55;1.1;;;1.3;;
